createdAt,value
2017-07-30T00:00:31.364Z,18.15
2017-07-30T00:01:43.952Z,18.11
2017-07-30T00:02:56.522Z,18.19
2017-07-30T00:04:09.125Z,18.15
2017-07-30T00:05:21.638Z,18.15
2017-07-30T00:06:33.919Z,18.16
2017-07-30T00:07:46.489Z,18.16
2017-07-30T00:08:59.136Z,18.13
2017-07-30T00:10:11.466Z,18.12
2017-07-30T00:11:24.051Z,18.15
2017-07-30T00:12:36.347Z,18.12
2017-07-30T00:13:48.648Z,18.06
2017-07-30T00:15:01.002Z,18.16
2017-07-30T00:16:12.989Z,18.12
2017-07-30T00:17:25.537Z,18.06
2017-07-30T00:18:38.104Z,18
2017-07-30T00:19:50.674Z,18.05
2017-07-30T00:21:03.281Z,18.02
2017-07-30T00:22:15.264Z,18
2017-07-30T00:23:27.539Z,18.03
2017-07-30T00:24:40.124Z,18
2017-07-30T00:25:52.732Z,18.09
2017-07-30T00:27:04.474Z,18
2017-07-30T00:28:17.070Z,18.05
2017-07-30T00:29:29.649Z,18.08
2017-07-30T00:30:42.296Z,18.02
2017-07-30T00:31:54.938Z,18.06
2017-07-30T00:33:07.533Z,17.97
2017-07-30T00:34:20.109Z,17.98
2017-07-30T00:35:32.744Z,18.02
2017-07-30T00:36:45.016Z,18.05
2017-07-30T00:37:57.643Z,18.02
2017-07-30T00:39:10.265Z,18
2017-07-30T00:40:22.885Z,18.08
2017-07-30T00:41:35.540Z,17.97
2017-07-30T00:42:47.819Z,17.95
2017-07-30T00:44:00.366Z,18.02
2017-07-30T00:45:12.617Z,17.95
2017-07-30T00:46:25.232Z,17.91
2017-07-30T00:47:37.507Z,17.9
2017-07-30T00:48:50.129Z,17.87
2017-07-30T00:50:02.358Z,17.95
2017-07-30T00:51:14.957Z,17.98
2017-07-30T00:52:27.510Z,17.9
2017-07-30T00:53:40.115Z,17.97
2017-07-30T00:54:52.733Z,17.87
2017-07-30T00:56:05.274Z,17.9
2017-07-30T00:57:17.924Z,17.87
2017-07-30T00:58:30.466Z,17.91
2017-07-30T00:59:43.005Z,17.88
2017-07-30T01:00:55.541Z,17.82
2017-07-30T01:02:08.097Z,17.86
2017-07-30T01:03:20.101Z,17.86
2017-07-30T01:04:32.729Z,17.84
2017-07-30T01:05:45.310Z,17.84
2017-07-30T01:06:57.562Z,17.79
2017-07-30T01:08:10.119Z,17.84
2017-07-30T01:09:22.730Z,17.79
2017-07-30T01:10:34.729Z,17.79
2017-07-30T01:11:47.324Z,17.8
2017-07-30T01:12:59.299Z,17.8
2017-07-30T01:14:11.856Z,17.84
2017-07-30T01:15:24.507Z,17.78
2017-07-30T01:16:37.130Z,17.8
2017-07-30T01:17:49.404Z,17.86
2017-07-30T01:19:01.714Z,17.76
2017-07-30T01:20:14.306Z,17.79
2017-07-30T01:21:27.117Z,17.8
2017-07-30T01:22:39.096Z,17.86
2017-07-30T01:23:51.681Z,17.9
2017-07-30T01:25:03.950Z,17.84
2017-07-30T01:26:16.526Z,17.82
2017-07-30T01:27:29.106Z,17.84
2017-07-30T01:28:41.731Z,17.84
2017-07-30T01:29:53.979Z,17.87
2017-07-30T01:31:06.258Z,17.88
2017-07-30T01:32:18.777Z,17.86
2017-07-30T01:33:31.426Z,17.82
2017-07-30T01:34:44.044Z,17.87
2017-07-30T01:35:56.330Z,17.87
2017-07-30T01:37:08.021Z,17.93
2017-07-30T01:38:20.548Z,17.93
2017-07-30T01:39:33.170Z,17.88
2017-07-30T01:40:45.807Z,17.97
2017-07-30T01:41:58.175Z,17.9
2017-07-30T01:43:11.042Z,17.93
2017-07-30T01:44:23.624Z,17.9
2017-07-30T01:45:36.212Z,17.95
2017-07-30T01:46:48.465Z,17.97
2017-07-30T01:48:00.759Z,18
2017-07-30T01:49:12.798Z,18.02
2017-07-30T01:50:25.384Z,17.97
2017-07-30T01:51:38.035Z,18.03
2017-07-30T01:52:50.314Z,18
2017-07-30T01:54:02.295Z,17.97
2017-07-30T01:55:14.253Z,18
2017-07-30T01:56:26.854Z,18.03
2017-07-30T01:57:39.458Z,18.05
2017-07-30T01:58:51.712Z,18
2017-07-30T02:00:04.319Z,18
2017-07-30T02:01:16.921Z,17.94
2017-07-30T02:02:29.585Z,17.94
2017-07-30T02:03:41.862Z,17.88
2017-07-30T02:04:54.174Z,17.9
2017-07-30T02:06:06.474Z,17.91
2017-07-30T02:07:19.084Z,17.88
2017-07-30T02:08:31.704Z,17.9
2017-07-30T02:09:44.301Z,17.87
2017-07-30T02:10:56.522Z,17.84
2017-07-30T02:12:09.060Z,17.84
2017-07-30T02:13:21.675Z,17.84
2017-07-30T02:14:34.291Z,17.86
2017-07-30T02:15:46.580Z,17.79
2017-07-30T02:16:59.117Z,17.78
2017-07-30T02:18:11.358Z,17.79
2017-07-30T02:19:23.924Z,17.76
2017-07-30T02:20:36.488Z,17.71
2017-07-30T02:21:49.036Z,17.69
2017-07-30T02:23:01.283Z,17.69
2017-07-30T02:24:13.904Z,17.65
2017-07-30T02:25:26.501Z,17.72
2017-07-30T02:26:39.095Z,17.68
2017-07-30T02:27:51.669Z,17.68
2017-07-30T02:29:04.222Z,17.63
2017-07-30T02:30:16.848Z,17.68
2017-07-30T02:31:29.537Z,17.63
2017-07-30T02:32:42.100Z,17.68
2017-07-30T02:33:54.674Z,17.56
2017-07-30T02:35:06.991Z,17.59
2017-07-30T02:36:19.564Z,17.59
2017-07-30T02:37:31.902Z,17.54
2017-07-30T02:38:44.530Z,17.5
2017-07-30T02:39:57.128Z,17.5
2017-07-30T02:41:09.772Z,17.5
2017-07-30T02:42:22.318Z,17.54
2017-07-30T02:43:34.878Z,17.57
2017-07-30T02:44:47.410Z,17.56
2017-07-30T02:45:59.975Z,17.47
2017-07-30T02:47:12.006Z,17.39
2017-07-30T02:48:24.612Z,17.38
2017-07-30T02:49:37.265Z,17.39
2017-07-30T02:50:49.492Z,17.41
2017-07-30T02:52:01.766Z,17.37
2017-07-30T02:53:14.401Z,17.42
2017-07-30T02:54:26.985Z,17.34
2017-07-30T02:55:39.638Z,17.3
2017-07-30T02:56:52.215Z,17.23
2017-07-30T02:58:04.792Z,17.24
2017-07-30T02:59:16.785Z,17.24
2017-07-30T03:00:29.382Z,17.23
2017-07-30T03:01:41.642Z,17.28
2017-07-30T03:02:53.668Z,17.22
2017-07-30T03:04:05.899Z,17.16
2017-07-30T03:05:18.503Z,17.17
2017-07-30T03:06:30.764Z,17.14
2017-07-30T03:07:43.096Z,17.12
2017-07-30T03:08:55.375Z,17.1
2017-07-30T03:10:08.199Z,17.12
2017-07-30T03:11:20.802Z,17.09
2017-07-30T03:12:33.438Z,17.13
2017-07-30T03:13:46.057Z,17.07
2017-07-30T03:14:58.632Z,16.98
2017-07-30T03:16:11.206Z,17.05
2017-07-30T03:17:23.795Z,17.04
2017-07-30T03:18:35.778Z,17.04
2017-07-30T03:19:48.066Z,17.07
2017-07-30T03:21:00.950Z,17.07
2017-07-30T03:22:13.578Z,17.09
2017-07-30T03:23:26.137Z,17.01
2017-07-30T03:24:38.714Z,17.04
2017-07-30T03:25:51.369Z,17.07
2017-07-30T03:27:03.991Z,17.09
2017-07-30T03:28:16.586Z,17.02
2017-07-30T03:29:29.187Z,17.01
2017-07-30T03:30:41.744Z,17.04
2017-07-30T03:31:54.378Z,16.95
2017-07-30T03:33:06.930Z,17.02
2017-07-30T03:34:19.499Z,17.02
2017-07-30T03:35:32.035Z,17.04
2017-07-30T03:36:44.366Z,17.01
2017-07-30T03:37:56.908Z,17.01
2017-07-30T03:39:09.196Z,17.04
2017-07-30T03:40:21.770Z,16.98
2017-07-30T03:41:34.342Z,17.02
2017-07-30T03:42:46.341Z,17.05
2017-07-30T03:43:58.967Z,17.04
2017-07-30T03:45:11.575Z,17.12
2017-07-30T03:46:24.251Z,17.09
2017-07-30T03:47:36.861Z,17.04
2017-07-30T03:48:49.482Z,17.02
2017-07-30T03:50:02.040Z,16.99
2017-07-30T03:51:14.624Z,16.95
2017-07-30T03:52:27.284Z,16.99
2017-07-30T03:53:39.843Z,16.94
2017-07-30T03:54:52.113Z,16.98
2017-07-30T03:56:04.133Z,16.95
2017-07-30T03:57:16.724Z,16.99
2017-07-30T03:58:29.409Z,16.99
2017-07-30T03:59:41.653Z,16.99
2017-07-30T04:00:54.223Z,16.99
2017-07-30T04:02:06.772Z,17.04
2017-07-30T04:03:19.033Z,17.02
2017-07-30T04:04:31.648Z,16.99
2017-07-30T04:05:44.184Z,17.01
2017-07-30T04:06:56.781Z,17.02
2017-07-30T04:08:09.377Z,17.04
2017-07-30T04:09:21.372Z,17.02
2017-07-30T04:10:33.658Z,17.05
2017-07-30T04:11:45.896Z,17.07
2017-07-30T04:12:58.436Z,17.13
2017-07-30T04:14:10.402Z,17.14
2017-07-30T04:15:23.018Z,17.16
2017-07-30T04:16:35.609Z,17.17
2017-07-30T04:17:47.916Z,17.2
2017-07-30T04:19:00.188Z,17.28
2017-07-30T04:20:12.758Z,17.31
2017-07-30T04:21:25.355Z,17.32
2017-07-30T04:22:37.329Z,17.42
2017-07-30T04:23:49.588Z,17.42
2017-07-30T04:25:01.910Z,17.44
2017-07-30T04:26:14.564Z,17.53
2017-07-30T04:27:26.786Z,17.59
2017-07-30T04:28:39.380Z,17.56
2017-07-30T04:29:51.968Z,17.59
2017-07-30T04:31:04.510Z,17.69
2017-07-30T04:32:17.092Z,17.54
2017-07-30T04:33:29.691Z,17.65
2017-07-30T04:34:42.265Z,17.65
2017-07-30T04:35:53.936Z,17.65
2017-07-30T04:37:06.432Z,17.6
2017-07-30T04:38:18.796Z,17.71
2017-07-30T04:39:31.504Z,17.71
2017-07-30T04:40:44.140Z,17.72
2017-07-30T04:41:56.495Z,17.8
2017-07-30T04:43:08.793Z,17.82
2017-07-30T04:44:21.119Z,17.79
2017-07-30T04:45:33.724Z,17.79
2017-07-30T04:46:46.294Z,17.84
2017-07-30T04:47:58.321Z,17.8
2017-07-30T04:49:10.953Z,17.91
2017-07-30T04:50:23.574Z,17.82
2017-07-30T04:51:35.957Z,17.94
2017-07-30T04:52:48.191Z,17.9
2017-07-30T04:54:00.486Z,17.88
2017-07-30T04:55:12.746Z,17.93
2017-07-30T04:56:25.387Z,17.98
2017-07-30T04:57:37.712Z,18.08
2017-07-30T04:58:50.345Z,18.06
2017-07-30T05:00:02.946Z,18.06
2017-07-30T05:01:14.897Z,18.02
2017-07-30T05:02:27.458Z,18.03
2017-07-30T05:03:40.065Z,18.15
2017-07-30T05:04:52.357Z,18.13
2017-07-30T05:06:04.659Z,18.19
2017-07-30T05:07:17.241Z,18.28
2017-07-30T05:08:29.852Z,18.28
2017-07-30T05:09:42.172Z,18.18
2017-07-30T05:10:54.462Z,18.28
2017-07-30T05:12:06.990Z,18.3
2017-07-30T05:13:19.242Z,18.34
2017-07-30T05:14:31.853Z,18.42
2017-07-30T05:15:44.188Z,18.48
2017-07-30T05:16:56.778Z,18.39
2017-07-30T05:18:09.410Z,18.52
2017-07-30T05:19:22.038Z,18.6
2017-07-30T05:20:34.654Z,18.58
2017-07-30T05:21:46.336Z,18.61
2017-07-30T05:22:58.951Z,18.61
2017-07-30T05:24:11.242Z,18.61
2017-07-30T05:25:23.519Z,18.66
2017-07-30T05:26:35.826Z,18.73
2017-07-30T05:27:48.472Z,18.82
2017-07-30T05:29:01.000Z,18.88
2017-07-30T05:30:13.260Z,18.89
2017-07-30T05:31:26.092Z,18.98
2017-07-30T05:32:38.680Z,18.91
2017-07-30T05:33:50.952Z,19.05
2017-07-30T05:35:03.560Z,19.09
2017-07-30T05:36:15.802Z,19.19
2017-07-30T05:37:28.083Z,19.17
2017-07-30T05:38:40.424Z,19.2
2017-07-30T05:39:52.733Z,19.27
2017-07-30T05:41:04.690Z,19.24
2017-07-30T05:42:17.242Z,19.29
2017-07-30T05:43:29.852Z,19.39
2017-07-30T05:44:42.440Z,19.34
2017-07-30T05:45:55.044Z,19.35
2017-07-30T05:47:07.595Z,19.48
2017-07-30T05:48:20.435Z,19.49
2017-07-30T05:49:33.024Z,19.52
2017-07-30T05:50:45.602Z,19.6
2017-07-30T05:51:57.849Z,19.62
2017-07-30T05:53:10.120Z,19.7
2017-07-30T05:54:22.658Z,19.62
2017-07-30T05:55:35.185Z,19.7
2017-07-30T05:56:47.749Z,19.81
2017-07-30T05:58:00.371Z,19.81
2017-07-30T05:59:12.958Z,19.89
2017-07-30T06:00:24.888Z,19.85
2017-07-30T06:01:37.489Z,20
2017-07-30T06:02:50.136Z,20.07
2017-07-30T06:04:02.388Z,20.11
2017-07-30T06:05:14.948Z,20.27
2017-07-30T06:06:27.541Z,20.32
2017-07-30T06:07:40.169Z,20.29
2017-07-30T06:08:52.737Z,20.34
2017-07-30T06:10:05.269Z,20.33
2017-07-30T06:11:17.261Z,20.55
2017-07-30T06:12:29.553Z,20.66
2017-07-30T06:13:42.200Z,20.64
2017-07-30T06:14:54.474Z,20.77
2017-07-30T06:16:06.759Z,20.78
2017-07-30T06:17:19.048Z,20.93
2017-07-30T06:18:31.662Z,20.95
2017-07-30T06:19:43.407Z,21.08
2017-07-30T06:20:55.900Z,21.15
2017-07-30T06:22:08.453Z,21.2
2017-07-30T06:23:20.720Z,21.25
2017-07-30T06:24:33.263Z,21.32
2017-07-30T06:25:45.827Z,21.35
2017-07-30T06:26:58.439Z,21.6
2017-07-30T06:28:10.393Z,21.59
2017-07-30T06:29:23.000Z,21.78
2017-07-30T06:30:35.609Z,21.88
2017-07-30T06:31:48.114Z,22.14
2017-07-30T06:33:00.334Z,22.22
2017-07-30T06:34:12.886Z,22.34
2017-07-30T06:35:25.427Z,22.49
2017-07-30T06:36:38.080Z,22.62
2017-07-30T06:37:50.699Z,22.76
2017-07-30T06:39:03.328Z,23.16
2017-07-30T06:40:15.992Z,23.42
2017-07-30T06:41:28.639Z,23.82
2017-07-30T06:42:41.274Z,24.22
2017-07-30T06:43:53.823Z,24.68
2017-07-30T06:45:06.411Z,25.07
2017-07-30T06:46:19.045Z,25.52
2017-07-30T06:47:31.577Z,25.8
2017-07-30T06:48:44.149Z,26.27
2017-07-30T06:49:56.120Z,26.66
2017-07-30T06:51:08.385Z,27.05
2017-07-30T06:52:21.002Z,27.4
2017-07-30T06:53:33.587Z,27.64
2017-07-30T06:54:46.138Z,28.08
2017-07-30T06:55:58.763Z,28.4
2017-07-30T06:57:11.413Z,28.75
2017-07-30T06:58:24.308Z,29.07
2017-07-30T06:59:36.923Z,29.47
2017-07-30T07:00:49.520Z,29.81
2017-07-30T07:02:01.862Z,30.01
2017-07-30T07:03:14.443Z,30.31
2017-07-30T07:04:27.056Z,30.52
2017-07-30T07:05:39.359Z,30.74
2017-07-30T07:06:52.005Z,31.11
2017-07-30T07:08:04.325Z,31.32
2017-07-30T07:09:16.312Z,31.51
2017-07-30T07:10:28.916Z,31.69
2017-07-30T07:11:41.235Z,32.05
2017-07-30T07:12:53.891Z,32.19
2017-07-30T07:14:06.537Z,32.38
2017-07-30T07:15:18.891Z,32.54
2017-07-30T07:16:31.179Z,32.64
2017-07-30T07:17:43.486Z,32.9
2017-07-30T07:18:56.166Z,33.05
2017-07-30T07:20:08.800Z,33.12
2017-07-30T07:21:21.101Z,33.33
2017-07-30T07:22:33.748Z,33.51
2017-07-30T07:23:46.037Z,33.7
2017-07-30T07:24:58.716Z,33.82
2017-07-30T07:26:11.391Z,33.84
2017-07-30T07:27:24.000Z,34
2017-07-30T07:28:36.646Z,34.1
2017-07-30T07:29:48.952Z,34.06
2017-07-30T07:31:00.942Z,34.11
2017-07-30T07:32:13.516Z,34.21
2017-07-30T07:33:26.133Z,34.4
2017-07-30T07:34:38.725Z,34.46
2017-07-30T07:35:50.708Z,34.43
2017-07-30T07:37:03.428Z,34.33
2017-07-30T07:38:16.080Z,34.4
2017-07-30T07:39:28.659Z,34.55
2017-07-30T07:40:40.987Z,34.71
2017-07-30T07:41:53.943Z,34.73
2017-07-30T07:43:06.590Z,34.81
2017-07-30T07:44:19.194Z,34.75
2017-07-30T07:45:31.772Z,34.93
2017-07-30T07:46:44.370Z,34.93
2017-07-30T07:47:57.031Z,35.04
2017-07-30T07:49:09.618Z,35.03
2017-07-30T07:50:21.932Z,35.13
2017-07-30T07:51:34.271Z,35.15
2017-07-30T07:52:46.857Z,35.2
2017-07-30T07:53:59.136Z,35.32
2017-07-30T07:55:11.758Z,35.41
2017-07-30T07:56:24.408Z,35.52
2017-07-30T07:57:37.057Z,35.57
2017-07-30T07:58:49.372Z,35.72
2017-07-30T08:00:01.980Z,35.84
2017-07-30T08:01:13.638Z,35.87
2017-07-30T08:02:25.948Z,35.84
2017-07-30T08:03:38.788Z,35.86
2017-07-30T08:04:51.441Z,35.75
2017-07-30T08:06:04.085Z,35.68
2017-07-30T08:07:16.397Z,35.79
2017-07-30T08:08:28.997Z,35.91
2017-07-30T08:09:40.718Z,36.01
2017-07-30T08:10:52.995Z,36
2017-07-30T08:12:05.230Z,36.09
2017-07-30T08:13:17.794Z,36.13
2017-07-30T08:14:30.414Z,36.08
2017-07-30T08:15:42.754Z,36.13
2017-07-30T08:16:54.990Z,36.18
2017-07-30T08:18:07.279Z,36.24
2017-07-30T08:19:19.878Z,36.39
2017-07-30T08:20:32.177Z,36.43
2017-07-30T08:21:44.572Z,36.55
2017-07-30T08:22:57.223Z,36.72
2017-07-30T08:24:09.582Z,36.84
2017-07-30T08:25:21.828Z,36.85
2017-07-30T08:26:34.154Z,36.85
2017-07-30T08:27:46.445Z,36.85
2017-07-30T08:28:58.809Z,36.97
2017-07-30T08:30:11.106Z,36.91
2017-07-30T08:31:23.760Z,36.87
2017-07-30T08:32:35.763Z,36.78
2017-07-30T08:33:48.367Z,36.69
2017-07-30T08:35:00.374Z,36.6
2017-07-30T08:36:12.719Z,36.38
2017-07-30T08:37:25.389Z,36.18
2017-07-30T08:38:37.045Z,35.9
2017-07-30T08:39:49.698Z,35.79
2017-07-30T08:41:02.009Z,35.47
2017-07-30T08:42:14.321Z,35.39
2017-07-30T08:43:26.918Z,35.13
2017-07-30T08:44:39.217Z,35.03
2017-07-30T08:45:51.515Z,34.78
2017-07-30T08:47:04.104Z,34.66
2017-07-30T08:48:16.409Z,34.69
2017-07-30T08:49:29.004Z,34.48
2017-07-30T08:50:41.353Z,34.37
2017-07-30T08:51:53.424Z,34.21
2017-07-30T08:53:06.011Z,34.14
2017-07-30T08:54:18.614Z,34.1
2017-07-30T08:55:30.928Z,34.03
2017-07-30T08:56:43.265Z,33.85
2017-07-30T08:57:55.568Z,33.7
2017-07-30T08:59:07.856Z,33.69
2017-07-30T09:00:20.479Z,33.65
2017-07-30T09:01:33.088Z,33.53
2017-07-30T09:02:45.654Z,33.47
2017-07-30T09:03:58.015Z,33.53
2017-07-30T09:05:10.286Z,33.55
2017-07-30T09:06:22.558Z,33.54
2017-07-30T09:07:35.229Z,33.47
2017-07-30T09:08:47.785Z,33.51
2017-07-30T09:10:00.377Z,33.55
2017-07-30T09:11:12.400Z,33.55
2017-07-30T09:12:25.025Z,33.54
2017-07-30T09:13:37.367Z,33.66
2017-07-30T09:14:49.903Z,33.65
2017-07-30T09:16:01.967Z,33.69
2017-07-30T09:17:14.545Z,33.67
2017-07-30T09:18:27.205Z,33.69
2017-07-30T09:19:39.822Z,33.75
2017-07-30T09:20:52.141Z,33.72
2017-07-30T09:22:04.739Z,33.84
2017-07-30T09:23:17.370Z,33.85
2017-07-30T09:24:29.982Z,33.97
2017-07-30T09:25:42.599Z,33.97
2017-07-30T09:26:55.244Z,34.06
2017-07-30T09:28:07.801Z,34.1
2017-07-30T09:29:20.417Z,34.16
2017-07-30T09:30:33.064Z,34.24
2017-07-30T09:31:45.715Z,34.26
2017-07-30T09:32:58.067Z,34.31
2017-07-30T09:34:10.597Z,34.26
2017-07-30T09:35:23.146Z,34.29
2017-07-30T09:36:35.802Z,34.29
2017-07-30T09:37:48.466Z,34.13
2017-07-30T09:39:01.047Z,34.13
2017-07-30T09:40:13.617Z,34.26
2017-07-30T09:41:25.883Z,34.22
2017-07-30T09:42:38.270Z,34.28
2017-07-30T09:43:50.869Z,34.32
2017-07-30T09:45:03.143Z,34.29
2017-07-30T09:46:15.704Z,34.32
2017-07-30T09:47:28.432Z,34.22
2017-07-30T09:48:40.739Z,34.18
2017-07-30T09:49:53.373Z,34.11
2017-07-30T09:51:05.399Z,34.18
2017-07-30T09:52:17.998Z,34.29
2017-07-30T09:53:30.579Z,34.4
2017-07-30T09:54:43.225Z,34.59
2017-07-30T09:55:55.554Z,34.62
2017-07-30T09:57:07.886Z,34.62
2017-07-30T09:58:20.456Z,34.7
2017-07-30T09:59:33.138Z,34.79
2017-07-30T10:00:45.108Z,34.86
2017-07-30T10:01:57.675Z,35.07
2017-07-30T10:03:10.523Z,35.15
2017-07-30T10:04:23.136Z,35.27
2017-07-30T10:05:35.746Z,35.3
2017-07-30T10:06:48.034Z,35.31
2017-07-30T10:08:00.658Z,35.1
2017-07-30T10:09:12.661Z,35.15
2017-07-30T10:10:25.265Z,35.05
2017-07-30T10:11:37.877Z,35.01
2017-07-30T10:12:50.519Z,34.97
2017-07-30T10:14:03.122Z,34.94
2017-07-30T10:15:15.785Z,34.82
2017-07-30T10:16:28.412Z,34.79
2017-07-30T10:17:40.431Z,34.83
2017-07-30T10:18:52.745Z,34.79
2017-07-30T10:20:05.393Z,34.75
2017-07-30T10:21:17.970Z,34.86
2017-07-30T10:22:30.585Z,34.98
2017-07-30T10:23:42.897Z,35.15
2017-07-30T10:24:55.817Z,35.23
2017-07-30T10:26:08.095Z,35.45
2017-07-30T10:27:20.363Z,35.52
2017-07-30T10:28:32.986Z,35.68
2017-07-30T10:29:45.665Z,35.82
2017-07-30T10:30:58.040Z,35.93
2017-07-30T10:32:10.050Z,36.06
2017-07-30T10:33:22.702Z,36.2
2017-07-30T10:34:34.667Z,36.48
2017-07-30T10:35:47.010Z,36.63
2017-07-30T10:36:59.011Z,36.81
2017-07-30T10:38:11.629Z,36.89
2017-07-30T10:39:24.253Z,37.15
2017-07-30T10:40:36.545Z,37.21
2017-07-30T10:41:49.177Z,37.29
2017-07-30T10:43:01.849Z,37.4
2017-07-30T10:44:14.451Z,37.56
2017-07-30T10:45:27.058Z,37.66
2017-07-30T10:46:39.339Z,37.68
2017-07-30T10:47:52.020Z,37.75
2017-07-30T10:49:04.320Z,37.83
2017-07-30T10:50:16.956Z,37.91
2017-07-30T10:51:29.577Z,38
2017-07-30T10:52:41.866Z,38
2017-07-30T10:53:54.579Z,38.13
2017-07-30T10:55:07.189Z,38.2
2017-07-30T10:56:19.504Z,38.28
2017-07-30T10:57:32.148Z,38.28
2017-07-30T10:58:44.446Z,38.23
2017-07-30T10:59:57.109Z,38.23
2017-07-30T11:01:09.133Z,38.42
2017-07-30T11:02:21.740Z,38.35
2017-07-30T11:03:34.319Z,38.38
2017-07-30T11:04:46.863Z,38.47
2017-07-30T11:05:59.166Z,38.46
2017-07-30T11:07:11.505Z,38.48
2017-07-30T11:08:24.163Z,38.48
2017-07-30T11:09:36.775Z,38.47
2017-07-30T11:10:48.784Z,38.63
2017-07-30T11:12:01.057Z,38.56
2017-07-30T11:13:13.369Z,38.41
2017-07-30T11:14:25.957Z,38.39
2017-07-30T11:15:38.541Z,38.36
2017-07-30T11:16:51.166Z,38.35
2017-07-30T11:18:03.737Z,38.41
2017-07-30T11:19:16.350Z,38.34
2017-07-30T11:20:28.947Z,38.51
2017-07-30T11:21:41.593Z,38.54
2017-07-30T11:22:54.231Z,38.79
2017-07-30T11:24:06.548Z,38.95
2017-07-30T11:25:19.103Z,39.07
2017-07-30T11:26:31.716Z,39.19
2017-07-30T11:27:44.042Z,39.34
2017-07-30T11:28:56.707Z,39.6
2017-07-30T11:30:09.039Z,39.7
2017-07-30T11:31:21.398Z,39.83
2017-07-30T11:32:34.012Z,39.97
2017-07-30T11:33:46.341Z,40.02
2017-07-30T11:34:59.011Z,40.22
2017-07-30T11:36:11.634Z,40.35
2017-07-30T11:37:24.228Z,40.17
2017-07-30T11:38:36.853Z,40.22
2017-07-30T11:39:49.123Z,40.22
2017-07-30T11:41:01.400Z,40.28
2017-07-30T11:42:13.719Z,40.4
2017-07-30T11:43:25.765Z,40.42
2017-07-30T11:44:38.128Z,40.55
2017-07-30T11:45:50.753Z,40.73
2017-07-30T11:47:03.390Z,40.85
2017-07-30T11:48:16.053Z,41.18
2017-07-30T11:49:28.669Z,41.41
2017-07-30T11:50:40.976Z,41.42
2017-07-30T11:51:53.285Z,41.41
2017-07-30T11:53:05.317Z,41.51
2017-07-30T11:54:17.921Z,41.61
2017-07-30T11:55:30.523Z,41.74
2017-07-30T11:56:42.874Z,42
2017-07-30T11:57:55.444Z,41.99
2017-07-30T11:59:07.772Z,42.05
2017-07-30T12:00:20.405Z,42.09
2017-07-30T12:01:32.730Z,42.14
2017-07-30T12:02:44.645Z,42.36
2017-07-30T12:03:57.228Z,42.4
2017-07-30T12:05:09.893Z,42.39
2017-07-30T12:06:22.566Z,42.52
2017-07-30T12:07:34.572Z,42.51
2017-07-30T12:08:46.922Z,42.56
2017-07-30T12:09:59.218Z,42.55
2017-07-30T12:11:11.868Z,42.44
2017-07-30T12:12:24.177Z,42.39
2017-07-30T12:13:36.798Z,42.39
2017-07-30T12:14:49.114Z,42.61
2017-07-30T12:16:01.722Z,42.61
2017-07-30T12:17:14.397Z,42.71
2017-07-30T12:18:27.072Z,42.81
2017-07-30T12:19:39.728Z,43.02
2017-07-30T12:20:52.013Z,43.16
2017-07-30T12:22:04.653Z,43.38
2017-07-30T12:23:17.265Z,43.39
2017-07-30T12:24:29.942Z,43.51
2017-07-30T12:25:42.565Z,43.69
2017-07-30T12:26:54.823Z,43.68
2017-07-30T12:28:07.187Z,43.7
2017-07-30T12:29:19.559Z,43.57
2017-07-30T12:30:32.174Z,43.54
2017-07-30T12:31:44.520Z,43.51
2017-07-30T12:32:57.141Z,43.66
2017-07-30T12:34:09.454Z,43.65
2017-07-30T12:35:22.111Z,43.63
2017-07-30T12:36:34.085Z,43.56
2017-07-30T12:37:45.835Z,43.51
2017-07-30T12:38:58.435Z,43.39
2017-07-30T12:40:11.097Z,43.19
2017-07-30T12:41:23.423Z,42.99
2017-07-30T12:42:35.751Z,42.56
2017-07-30T12:43:48.356Z,42.21
2017-07-30T12:45:00.926Z,41.87
2017-07-30T12:46:12.940Z,41.45
2017-07-30T12:47:24.890Z,40.95
2017-07-30T12:48:37.146Z,40.52
2017-07-30T12:49:49.126Z,40.32
2017-07-30T12:51:01.448Z,40.17
2017-07-30T12:52:14.079Z,40.19
2017-07-30T12:53:26.750Z,40.19
2017-07-30T12:54:38.780Z,40.26
2017-07-30T12:55:51.444Z,40.19
2017-07-30T12:57:04.057Z,40.2
2017-07-30T12:58:16.688Z,40.54
2017-07-30T12:59:29.259Z,40.58
2017-07-30T13:00:41.539Z,40.59
2017-07-30T13:01:53.561Z,40.73
2017-07-30T13:03:05.945Z,40.73
2017-07-30T13:04:18.526Z,40.71
2017-07-30T13:05:30.832Z,40.81
2017-07-30T13:06:42.778Z,40.83
2017-07-30T13:07:55.075Z,40.8
2017-07-30T13:09:07.361Z,40.71
2017-07-30T13:10:19.692Z,40.7
2017-07-30T13:11:32.340Z,40.76
2017-07-30T13:12:44.058Z,40.9
2017-07-30T13:13:56.703Z,41.04
2017-07-30T13:15:09.372Z,40.95
2017-07-30T13:16:22.001Z,40.66
2017-07-30T13:17:34.272Z,40.44
2017-07-30T13:18:46.918Z,40.24
2017-07-30T13:19:59.300Z,40.24
2017-07-30T13:21:11.858Z,40.23
2017-07-30T13:22:23.866Z,40.46
2017-07-30T13:23:36.176Z,40.54
2017-07-30T13:24:48.565Z,40.48
2017-07-30T13:26:00.818Z,40.44
2017-07-30T13:27:13.138Z,40.48
2017-07-30T13:28:25.720Z,40.52
2017-07-30T13:29:37.978Z,40.51
2017-07-30T13:30:50.597Z,40.28
2017-07-30T13:32:02.894Z,40
2017-07-30T13:33:15.543Z,39.71
2017-07-30T13:34:28.185Z,39.67
2017-07-30T13:35:40.477Z,39.7
2017-07-30T13:36:53.155Z,39.73
2017-07-30T13:38:05.162Z,39.6
2017-07-30T13:39:17.490Z,39.64
2017-07-30T13:40:30.398Z,39.7
2017-07-30T13:41:42.762Z,39.75
2017-07-30T13:42:55.066Z,39.88
2017-07-30T13:44:07.368Z,39.95
2017-07-30T13:45:19.696Z,39.95
2017-07-30T13:46:31.676Z,40.05
2017-07-30T13:47:44.263Z,40.1
2017-07-30T13:48:56.926Z,40.22
2017-07-30T13:50:09.240Z,40.23
2017-07-30T13:51:21.942Z,40.17
2017-07-30T13:52:34.287Z,40.14
2017-07-30T13:53:46.610Z,40.22
2017-07-30T13:54:58.561Z,40.19
2017-07-30T13:56:10.551Z,40.16
2017-07-30T13:57:22.923Z,40.29
2017-07-30T13:58:35.244Z,40.02
2017-07-30T13:59:47.596Z,40.04
2017-07-30T14:00:59.934Z,40.05
2017-07-30T14:02:11.982Z,40.1
2017-07-30T14:03:24.588Z,40.05
2017-07-30T14:04:37.205Z,40.05
2017-07-30T14:05:49.575Z,40.04
2017-07-30T14:07:01.857Z,40.04
2017-07-30T14:08:13.843Z,39.94
2017-07-30T14:09:25.822Z,39.83
2017-07-30T14:10:38.429Z,39.85
2017-07-30T14:11:50.112Z,39.76
2017-07-30T14:13:02.705Z,39.56
2017-07-30T14:14:15.299Z,39.39
2017-07-30T14:15:27.961Z,39.17
2017-07-30T14:16:40.238Z,39.08
2017-07-30T14:17:52.569Z,38.81
2017-07-30T14:19:04.943Z,38.84
2017-07-30T14:20:17.630Z,38.79
2017-07-30T14:21:30.251Z,38.77
2017-07-30T14:22:42.557Z,38.69
2017-07-30T14:23:55.228Z,38.73
2017-07-30T14:25:07.912Z,38.76
2017-07-30T14:26:20.224Z,38.65
2017-07-30T14:27:32.825Z,38.54
2017-07-30T14:28:44.803Z,38.38
2017-07-30T14:29:57.343Z,38.32
2017-07-30T14:31:09.608Z,38.16
2017-07-30T14:32:22.237Z,38
2017-07-30T14:33:34.845Z,37.83
2017-07-30T14:34:47.450Z,37.5
2017-07-30T14:35:59.776Z,37.23
2017-07-30T14:37:12.120Z,37.09
2017-07-30T14:38:24.664Z,36.84
2017-07-30T14:39:37.248Z,36.66
2017-07-30T14:40:49.261Z,36.65
2017-07-30T14:42:01.639Z,36.5
2017-07-30T14:43:14.273Z,36.25
2017-07-30T14:44:26.587Z,36.2
2017-07-30T14:45:38.880Z,35.97
2017-07-30T14:46:50.863Z,35.9
2017-07-30T14:48:02.858Z,35.86
2017-07-30T14:49:15.129Z,35.71
2017-07-30T14:50:27.767Z,35.63
2017-07-30T14:51:40.045Z,35.57
2017-07-30T14:52:52.646Z,35.47
2017-07-30T14:54:05.233Z,35.41
2017-07-30T14:55:17.611Z,35.32
2017-07-30T14:56:30.214Z,35.18
2017-07-30T14:57:41.918Z,35
2017-07-30T14:58:54.250Z,34.88
2017-07-30T15:00:06.298Z,34.85
2017-07-30T15:01:18.950Z,34.73
2017-07-30T15:02:31.301Z,34.69
2017-07-30T15:03:43.298Z,34.6
2017-07-30T15:04:55.927Z,34.59
2017-07-30T15:06:08.504Z,34.58
2017-07-30T15:07:21.136Z,34.47
2017-07-30T15:08:33.774Z,34.33
2017-07-30T15:09:46.032Z,34.16
2017-07-30T15:10:57.783Z,34.18
2017-07-30T15:12:10.409Z,33.94
2017-07-30T15:13:23.039Z,33.82
2017-07-30T15:14:35.675Z,33.69
2017-07-30T15:15:47.698Z,33.51
2017-07-30T15:17:00.346Z,33.45
2017-07-30T15:18:12.904Z,33.28
2017-07-30T15:19:25.564Z,33.13
2017-07-30T15:20:38.173Z,32.95
2017-07-30T15:21:50.155Z,32.81
2017-07-30T15:23:02.753Z,32.75
2017-07-30T15:24:15.352Z,32.63
2017-07-30T15:25:27.975Z,32.61
2017-07-30T15:26:40.595Z,32.44
2017-07-30T15:27:52.527Z,32.34
2017-07-30T15:29:04.498Z,32.3
2017-07-30T15:30:17.114Z,32.19
2017-07-30T15:31:29.701Z,32.12
2017-07-30T15:32:42.318Z,32
2017-07-30T15:33:54.671Z,32
2017-07-30T15:35:06.925Z,31.9
2017-07-30T15:36:19.513Z,31.89
2017-07-30T15:37:31.791Z,31.81
2017-07-30T15:38:44.035Z,31.7